Terminal Aerodrome Forecast
Issued by NWS Dodge City, KS

Home | Current Version | Previous Version | Graphics & Text | Print | Product List | Glossary Off
Versions: 1 2 3 4 5 6 7 8 9 10 11 12 13 14 15 16 17 18 19 20 21 22 23 24 25 26 27

000
FTUS43 KDDC 270520
TAFDDC
TAF
KDDC 270520Z 2706/2806 03003KT P6SM SCT250
     FM272100 14018KT P6SM VCTS BKN070CB
     FM280000 12017G25KT P6SM BKN060
     FM280200 11012KT P6SM BKN025
     FM280400 14007KT P6SM BKN008=

USA.gov is the U.S. government's official web portal to all federal, state and local government web resources and services.